createdAt,value
2017-12-17T00:00:20.943Z,0.5
2017-12-17T00:01:21.188Z,0.5
2017-12-17T00:02:21.455Z,0.57
2017-12-17T00:03:21.444Z,0.53
2017-12-17T00:04:20.850Z,0.58
2017-12-17T00:05:20.845Z,0.56
2017-12-17T00:06:21.104Z,0.5
2017-12-17T00:07:20.835Z,0.52
2017-12-17T00:08:21.082Z,0.53
2017-12-17T00:09:21.042Z,0.47
2017-12-17T00:10:20.759Z,0.57
2017-12-17T00:11:21.001Z,0.52
2017-12-17T00:12:20.994Z,0.52
2017-12-17T00:13:21.006Z,0.5
2017-12-17T00:14:20.694Z,0.48
2017-12-17T00:15:20.686Z,0.57
2017-12-17T00:16:20.991Z,0.5
2017-12-17T00:17:21.180Z,0.48
2017-12-17T00:18:20.896Z,0.42
2017-12-17T00:19:20.884Z,0.37
2017-12-17T00:20:20.579Z,0.47
2017-12-17T00:21:20.572Z,0.39
2017-12-17T00:22:20.795Z,0.42
2017-12-17T00:23:20.782Z,0.41
2017-12-17T00:24:20.786Z,0.48
2017-12-17T00:25:20.757Z,0.38
2017-12-17T00:26:20.466Z,0.37
2017-12-17T00:27:20.449Z,0.41
2017-12-17T00:28:20.418Z,0.39
2017-12-17T00:29:20.673Z,0.44
2017-12-17T00:30:20.386Z,0.35
2017-12-17T00:31:20.412Z,0.38
2017-12-17T00:32:20.343Z,0.37
2017-12-17T00:33:20.337Z,0.35
2017-12-17T00:34:20.578Z,0.35
2017-12-17T00:35:20.305Z,0.42
2017-12-17T00:36:20.819Z,0.39
2017-12-17T00:37:20.536Z,0.44
2017-12-17T00:38:20.509Z,0.38
2017-12-17T00:39:20.490Z,0.39
2017-12-17T00:40:20.485Z,0.31
2017-12-17T00:41:20.182Z,0.35
2017-12-17T00:42:20.164Z,0.35
2017-12-17T00:43:20.147Z,0.39
2017-12-17T00:44:20.127Z,0.42
2017-12-17T00:45:20.113Z,0.41
2017-12-17T00:46:20.360Z,0.39
2017-12-17T00:47:20.620Z,0.37
2017-12-17T00:48:20.332Z,0.39
2017-12-17T00:49:20.043Z,0.35
2017-12-17T00:50:20.022Z,0.37
2017-12-17T00:51:20.011Z,0.42
2017-12-17T00:52:19.991Z,0.39
2017-12-17T00:53:19.970Z,0.35
2017-12-17T00:54:20.234Z,0.42
2017-12-17T00:55:19.930Z,0.45
2017-12-17T00:56:19.981Z,0.37
2017-12-17T00:57:20.161Z,0.38
2017-12-17T00:58:20.433Z,0.31
2017-12-17T00:59:19.854Z,0.31
2017-12-17T01:00:19.841Z,0.35
2017-12-17T01:01:20.139Z,0.31
2017-12-17T01:02:19.815Z,0.31
2017-12-17T01:03:19.813Z,0.35
2017-12-17T01:04:19.766Z,0.38
2017-12-17T01:05:19.747Z,0.27
2017-12-17T01:06:20.004Z,0.37
2017-12-17T01:07:19.984Z,0.35
2017-12-17T01:08:19.692Z,0.31
2017-12-17T01:09:19.682Z,0.34
2017-12-17T01:10:19.654Z,0.34
2017-12-17T01:11:19.656Z,0.44
2017-12-17T01:12:20.161Z,0.34
2017-12-17T01:13:19.874Z,0.34
2017-12-17T01:14:19.852Z,0.32
2017-12-17T01:15:19.840Z,0.42
2017-12-17T01:16:20.094Z,0.38
2017-12-17T01:17:19.822Z,0.37
2017-12-17T01:18:19.802Z,0.42
2017-12-17T01:19:19.505Z,0.32
2017-12-17T01:20:19.752Z,0.31
2017-12-17T01:21:20.004Z,0.41
2017-12-17T01:22:19.716Z,0.35
2017-12-17T01:23:19.421Z,0.38
2017-12-17T01:24:19.957Z,0.39
2017-12-17T01:25:19.392Z,0.38
2017-12-17T01:26:19.653Z,0.41
2017-12-17T01:27:19.621Z,0.35
2017-12-17T01:28:19.625Z,0.32
2017-12-17T01:29:19.869Z,0.41
2017-12-17T01:30:19.295Z,0.37
2017-12-17T01:31:19.546Z,0.41
2017-12-17T01:32:19.535Z,0.39
2017-12-17T01:33:19.509Z,0.44
2017-12-17T01:34:19.762Z,0.38
2017-12-17T01:35:19.497Z,0.44
2017-12-17T01:36:19.457Z,0.41
2017-12-17T01:37:19.168Z,0.38
2017-12-17T01:38:19.147Z,0.38
2017-12-17T01:39:19.418Z,0.34
2017-12-17T01:40:19.118Z,0.45
2017-12-17T01:41:19.112Z,0.38
2017-12-17T01:42:19.077Z,0.23
2017-12-17T01:43:19.329Z,0.23
2017-12-17T01:44:19.034Z,0.27
2017-12-17T01:45:19.024Z,0.31
2017-12-17T01:46:19.013Z,0.24
2017-12-17T01:47:18.985Z,0.23
2017-12-17T01:48:19.237Z,0.26
2017-12-17T01:49:19.239Z,0.24
2017-12-17T01:50:19.476Z,0.24
2017-12-17T01:51:19.190Z,0.28
2017-12-17T01:52:19.182Z,0.27
2017-12-17T01:53:18.874Z,0.21
2017-12-17T01:54:19.133Z,0.27
2017-12-17T01:55:18.859Z,0.23
2017-12-17T01:56:18.819Z,0.31
2017-12-17T01:57:18.811Z,0.23
2017-12-17T01:58:18.782Z,0.35
2017-12-17T01:59:19.333Z,0.28
2017-12-17T02:00:18.746Z,0.27
2017-12-17T02:01:19.002Z,0.31
2017-12-17T02:02:18.711Z,0.28
2017-12-17T02:03:18.966Z,0.35
2017-12-17T02:04:18.946Z,0.31
2017-12-17T02:05:18.930Z,0.38
2017-12-17T02:06:18.636Z,0.41
2017-12-17T02:07:18.617Z,0.39
2017-12-17T02:08:18.895Z,0.37
2017-12-17T02:09:18.581Z,0.34
2017-12-17T02:10:18.832Z,0.31
2017-12-17T02:11:18.553Z,0.32
2017-12-17T02:12:18.811Z,0.45
2017-12-17T02:13:18.506Z,0.37
2017-12-17T02:14:18.769Z,0.44
2017-12-17T02:15:19.029Z,0.39
2017-12-17T02:16:18.743Z,0.34
2017-12-17T02:17:18.440Z,0.41
2017-12-17T02:18:18.701Z,0.35
2017-12-17T02:19:18.671Z,0.37
2017-12-17T02:20:18.380Z,0.42
2017-12-17T02:21:18.914Z,0.39
2017-12-17T02:22:18.343Z,0.35
2017-12-17T02:23:18.327Z,0.41
2017-12-17T02:24:18.579Z,0.45
2017-12-17T02:25:18.564Z,0.37
2017-12-17T02:26:18.581Z,0.31
2017-12-17T02:27:18.797Z,0.44
2017-12-17T02:28:18.509Z,0.37
2017-12-17T02:29:18.487Z,0.44
2017-12-17T02:30:18.474Z,0.42
2017-12-17T02:31:18.194Z,0.34
2017-12-17T02:32:18.437Z,0.42
2017-12-17T02:33:18.429Z,0.35
2017-12-17T02:34:18.424Z,0.42
2017-12-17T02:35:18.124Z,0.34
2017-12-17T02:36:18.684Z,0.35
2017-12-17T02:37:18.089Z,0.41
2017-12-17T02:38:18.327Z,0.37
2017-12-17T02:39:18.306Z,0.41
2017-12-17T02:40:18.313Z,0.38
2017-12-17T02:41:18.012Z,0.47
2017-12-17T02:42:18.263Z,0.41
2017-12-17T02:43:18.235Z,0.37
2017-12-17T02:44:18.220Z,0.48
2017-12-17T02:45:17.937Z,0.52
2017-12-17T02:46:18.207Z,0.5
2017-12-17T02:47:18.163Z,0.56
2017-12-17T02:48:18.151Z,0.52
2017-12-17T02:49:18.401Z,0.53
2017-12-17T02:50:18.115Z,0.57
2017-12-17T02:51:17.813Z,0.56
2017-12-17T02:52:18.072Z,0.57
2017-12-17T02:53:18.058Z,0.53
2017-12-17T02:54:18.321Z,0.56
2017-12-17T02:55:18.020Z,0.5
2017-12-17T02:56:18.000Z,0.53
2017-12-17T02:57:17.794Z,0.6
2017-12-17T02:58:17.690Z,0.58
2017-12-17T02:59:17.943Z,0.5
2017-12-17T03:00:17.659Z,0.6
2017-12-17T03:01:17.923Z,0.48
2017-12-17T03:02:18.282Z,0.5
2017-12-17T03:03:17.598Z,0.5
2017-12-17T03:04:17.581Z,0.53
2017-12-17T03:05:18.107Z,0.53
2017-12-17T03:06:17.545Z,0.53
2017-12-17T03:07:17.528Z,0.52
2017-12-17T03:08:17.798Z,0.5
2017-12-17T03:09:17.490Z,0.57
2017-12-17T03:10:17.473Z,0.47
2017-12-17T03:11:17.726Z,0.53
2017-12-17T03:12:17.439Z,0.39
2017-12-17T03:13:17.430Z,0.47
2017-12-17T03:14:17.399Z,0.52
2017-12-17T03:15:17.381Z,0.41
2017-12-17T03:16:17.362Z,0.41
2017-12-17T03:17:17.890Z,0.41
2017-12-17T03:18:17.867Z,0.44
2017-12-17T03:19:17.581Z,0.44
2017-12-17T03:20:17.314Z,0.44
2017-12-17T03:21:17.813Z,0.37
2017-12-17T03:22:17.557Z,0.42
2017-12-17T03:23:17.786Z,0.37
2017-12-17T03:24:17.494Z,0.39
2017-12-17T03:25:17.478Z,0.42
2017-12-17T03:26:17.191Z,0.39
2017-12-17T03:27:17.721Z,0.41
2017-12-17T03:28:17.695Z,0.35
2017-12-17T03:29:17.402Z,0.39
2017-12-17T03:30:17.123Z,0.34
2017-12-17T03:31:17.642Z,0.42
2017-12-17T03:32:17.073Z,0.42
2017-12-17T03:33:17.056Z,0.41
2017-12-17T03:34:17.047Z,0.38
2017-12-17T03:35:17.292Z,0.32
2017-12-17T03:36:17.002Z,0.41
2017-12-17T03:37:17.540Z,0.38
2017-12-17T03:38:16.970Z,0.37
2017-12-17T03:39:16.965Z,0.41
2017-12-17T03:40:17.483Z,0.34
2017-12-17T03:41:17.246Z,0.41
2017-12-17T03:42:16.889Z,0.37
2017-12-17T03:43:17.153Z,0.31
2017-12-17T03:44:16.852Z,0.37
2017-12-17T03:45:17.113Z,0.34
2017-12-17T03:46:17.093Z,0.41
2017-12-17T03:47:17.413Z,0.35
2017-12-17T03:48:16.780Z,0.37
2017-12-17T03:49:17.034Z,0.37
2017-12-17T03:50:16.787Z,0.41
2017-12-17T03:51:17.010Z,0.34
2017-12-17T03:52:17.253Z,0.28
2017-12-17T03:53:16.692Z,0.31
2017-12-17T03:54:16.676Z,0.35
2017-12-17T03:55:16.932Z,0.32
2017-12-17T03:56:16.637Z,0.24
2017-12-17T03:57:16.890Z,0.26
2017-12-17T03:58:16.876Z,0.23
2017-12-17T03:59:16.874Z,0.32
2017-12-17T04:00:16.842Z,0.2
2017-12-17T04:01:16.566Z,0.27
2017-12-17T04:02:16.803Z,0.24
2017-12-17T04:03:16.510Z,0.27
2017-12-17T04:04:16.493Z,0.28
2017-12-17T04:05:16.474Z,0.27
2017-12-17T04:06:16.452Z,0.27
2017-12-17T04:07:16.708Z,0.24
2017-12-17T04:08:16.420Z,0.21
2017-12-17T04:09:16.961Z,0.26
2017-12-17T04:10:16.654Z,0.26
2017-12-17T04:11:16.632Z,0.28
2017-12-17T04:12:16.360Z,0.27
2017-12-17T04:13:16.617Z,0.23
2017-12-17T04:14:16.308Z,0.23
2017-12-17T04:15:16.289Z,0.28
2017-12-17T04:16:16.547Z,0.32
2017-12-17T04:17:16.532Z,0.28
2017-12-17T04:18:16.785Z,0.26
2017-12-17T04:19:16.219Z,0.28
2017-12-17T04:20:16.501Z,0.34
2017-12-17T04:21:16.178Z,0.31
2017-12-17T04:22:16.723Z,0.26
2017-12-17T04:23:16.431Z,0.23
2017-12-17T04:24:16.401Z,0.24
2017-12-17T04:25:16.379Z,0.23
2017-12-17T04:26:16.372Z,0.26
2017-12-17T04:27:16.126Z,0.34
2017-12-17T04:28:16.055Z,0.24
2017-12-17T04:29:16.318Z,0.21
2017-12-17T04:30:16.040Z,0.26
2017-12-17T04:31:15.998Z,0.26
2017-12-17T04:32:15.978Z,0.23
2017-12-17T04:33:16.240Z,0.26
2017-12-17T04:34:19.695Z,0.34
2017-12-17T04:35:15.923Z,0.34
2017-12-17T04:36:16.199Z,0.28
2017-12-17T04:37:15.892Z,0.31
2017-12-17T04:38:15.897Z,0.34
2017-12-17T04:39:16.123Z,0.28
2017-12-17T04:40:15.838Z,0.31
2017-12-17T04:41:16.366Z,0.28
2017-12-17T04:42:16.079Z,0.21
2017-12-17T04:43:16.326Z,0.24
2017-12-17T04:44:15.759Z,0.31
2017-12-17T04:45:16.016Z,0.28
2017-12-17T04:46:15.998Z,0.31
2017-12-17T04:47:15.985Z,0.38
2017-12-17T04:48:15.688Z,0.41
2017-12-17T04:49:15.947Z,0.38
2017-12-17T04:50:15.922Z,0.23
2017-12-17T04:51:15.923Z,0.32
2017-12-17T04:52:15.887Z,0.38
2017-12-17T04:53:16.143Z,0.21
2017-12-17T04:54:15.862Z,0.32
2017-12-17T04:55:15.882Z,0.26
2017-12-17T04:56:15.818Z,0.23
2017-12-17T04:57:16.117Z,0.35
2017-12-17T04:58:16.052Z,0.24
2017-12-17T04:59:15.490Z,0.26
2017-12-17T05:00:15.750Z,0.32
2017-12-17T05:01:15.448Z,0.27
2017-12-17T05:02:15.703Z,0.41
2017-12-17T05:03:15.688Z,0.31
2017-12-17T05:04:15.398Z,0.27
2017-12-17T05:05:15.654Z,0.41
2017-12-17T05:06:15.902Z,0.42
2017-12-17T05:07:15.615Z,0.34
2017-12-17T05:08:15.594Z,0.35
2017-12-17T05:09:15.854Z,0.37
2017-12-17T05:10:15.564Z,0.31
2017-12-17T05:11:15.546Z,0.24
2017-12-17T05:12:15.250Z,0.38
2017-12-17T05:13:15.775Z,0.38
2017-12-17T05:14:15.212Z,0.31
2017-12-17T05:15:15.469Z,0.38
2017-12-17T05:16:15.180Z,0.31
2017-12-17T05:17:15.432Z,0.35
2017-12-17T05:18:15.170Z,0.42
2017-12-17T05:19:15.423Z,0.31
2017-12-17T05:20:15.105Z,0.41
2017-12-17T05:21:15.088Z,0.35
2017-12-17T05:22:15.344Z,0.31
2017-12-17T05:23:15.327Z,0.44
2017-12-17T05:24:15.032Z,0.34
2017-12-17T05:25:15.288Z,0.37
2017-12-17T05:26:14.998Z,0.37
2017-12-17T05:27:15.252Z,0.28
2017-12-17T05:28:14.968Z,0.26
2017-12-17T05:29:15.216Z,0.21
2017-12-17T05:30:15.195Z,0.28
2017-12-17T05:31:14.908Z,0.26
2017-12-17T05:32:15.431Z,0.32
2017-12-17T05:33:15.441Z,0.19
2017-12-17T05:34:14.848Z,0.2
2017-12-17T05:35:15.106Z,0.24
2017-12-17T05:36:14.816Z,0.19
2017-12-17T05:37:15.067Z,0.2
2017-12-17T05:38:15.056Z,0.16
2017-12-17T05:39:14.760Z,0.24
2017-12-17T05:40:15.302Z,0.16
2017-12-17T05:41:14.744Z,0.19
2017-12-17T05:42:15.250Z,0.2
2017-12-17T05:43:14.980Z,0.17
2017-12-17T05:44:14.939Z,0.17
2017-12-17T05:45:14.967Z,0.1
2017-12-17T05:46:14.918Z,0.1
2017-12-17T05:47:14.908Z,0.16
2017-12-17T05:48:14.890Z,0.16
2017-12-17T05:49:14.853Z,0.1
2017-12-17T05:50:14.833Z,0.08
2017-12-17T05:51:14.831Z,0.08
2017-12-17T05:52:14.795Z,0.1
2017-12-17T05:53:14.504Z,0.14
2017-12-17T05:54:14.792Z,0.1
2017-12-17T05:55:14.744Z,0.17
2017-12-17T05:56:14.723Z,0.06
2017-12-17T05:57:14.431Z,0.1
2017-12-17T05:58:14.686Z,0.13
2017-12-17T05:59:14.450Z,0.09
2017-12-17T06:00:14.372Z,0.13
2017-12-17T06:01:14.354Z,0.17
2017-12-17T06:02:14.617Z,0.08
2017-12-17T06:03:14.597Z,0.16
2017-12-17T06:04:14.303Z,0.16
2017-12-17T06:05:14.558Z,0.06
2017-12-17T06:06:14.539Z,0.17
2017-12-17T06:07:14.796Z,0.16
2017-12-17T06:08:14.228Z,0.09
2017-12-17T06:09:14.213Z,0.08
2017-12-17T06:10:14.202Z,0.08
2017-12-17T06:11:14.172Z,0.17
2017-12-17T06:12:14.153Z,0.1
2017-12-17T06:13:14.135Z,0.13
2017-12-17T06:14:14.387Z,0.06
2017-12-17T06:15:14.100Z,0.13
2017-12-17T06:16:14.368Z,0.14
2017-12-17T06:17:14.065Z,0.13
2017-12-17T06:18:14.314Z,0.14
2017-12-17T06:19:14.049Z,0.09
2017-12-17T06:20:14.005Z,0.24
2017-12-17T06:21:14.009Z,0.14
2017-12-17T06:22:13.973Z,0.19
2017-12-17T06:23:14.231Z,0.23
2017-12-17T06:24:14.211Z,0.2
2017-12-17T06:25:14.480Z,0.17
2017-12-17T06:26:14.177Z,0.17
2017-12-17T06:27:13.928Z,0.16
2017-12-17T06:28:13.856Z,0.16
2017-12-17T06:29:13.842Z,0.09
2017-12-17T06:30:14.372Z,0.2
2017-12-17T06:31:14.084Z,0.19
2017-12-17T06:32:13.786Z,0.16
2017-12-17T06:33:13.769Z,0.16
2017-12-17T06:34:14.296Z,0.17
2017-12-17T06:35:14.007Z,0.19
2017-12-17T06:36:14.271Z,0.14
2017-12-17T06:37:13.693Z,0.16
2017-12-17T06:38:13.955Z,0.2
2017-12-17T06:39:13.658Z,0.14
2017-12-17T06:40:14.184Z,0.19
2017-12-17T06:41:13.624Z,0.2
2017-12-17T06:42:13.878Z,0.19
2017-12-17T06:43:13.861Z,0.16
2017-12-17T06:44:14.118Z,0.14
2017-12-17T06:45:13.823Z,0.17
2017-12-17T06:46:13.803Z,0.21
2017-12-17T06:47:13.531Z,0.17
2017-12-17T06:48:13.776Z,0.09
2017-12-17T06:49:13.752Z,0.16
2017-12-17T06:50:13.726Z,0.19
2017-12-17T06:51:13.732Z,0.19
2017-12-17T06:52:13.966Z,0.2
2017-12-17T06:53:13.544Z,0.1
2017-12-17T06:54:13.380Z,0.23
2017-12-17T06:55:13.365Z,0.13
2017-12-17T06:56:13.671Z,0.16
2017-12-17T06:57:13.631Z,0.17
2017-12-17T06:58:13.309Z,0.14
2017-12-17T06:59:13.570Z,0.26
2017-12-17T07:00:13.276Z,0.2
2017-12-17T07:01:13.570Z,0.2
2017-12-17T07:02:13.550Z,0.17
2017-12-17T07:03:13.219Z,0.16
2017-12-17T07:04:13.471Z,0.17
2017-12-17T07:05:13.183Z,0.17
2017-12-17T07:06:13.436Z,0.2
2017-12-17T07:07:13.144Z,0.2
2017-12-17T07:08:13.673Z,0.21
2017-12-17T07:09:13.114Z,0.19
2017-12-17T07:10:13.165Z,0.17
2017-12-17T07:11:13.277Z,0.27
2017-12-17T07:12:13.328Z,0.24
2017-12-17T07:13:13.034Z,0.34
2017-12-17T07:14:13.024Z,0.26
2017-12-17T07:15:13.000Z,0.27
2017-12-17T07:16:13.527Z,0.27
2017-12-17T07:17:13.236Z,0.21
2017-12-17T07:18:13.235Z,0.24
2017-12-17T07:19:12.934Z,0.34
2017-12-17T07:20:12.908Z,0.23
2017-12-17T07:21:13.182Z,0.27
2017-12-17T07:22:12.874Z,0.21
2017-12-17T07:23:12.857Z,0.21
2017-12-17T07:24:13.115Z,0.19
2017-12-17T07:25:12.817Z,0.21
2017-12-17T07:26:12.797Z,0.21
2017-12-17T07:27:13.321Z,0.32
2017-12-17T07:28:13.047Z,0.34
2017-12-17T07:29:12.745Z,0.27
2017-12-17T07:30:13.066Z,0.31
2017-12-17T07:31:12.706Z,0.23
2017-12-17T07:32:12.968Z,0.35
2017-12-17T07:33:12.943Z,0.26
2017-12-17T07:34:13.200Z,0.26
2017-12-17T07:35:12.927Z,0.32
2017-12-17T07:36:12.889Z,0.32
2017-12-17T07:37:12.874Z,0.24
2017-12-17T07:38:13.123Z,0.31
2017-12-17T07:39:12.560Z,0.24
2017-12-17T07:40:13.093Z,0.21
2017-12-17T07:41:12.545Z,0.34
2017-12-17T07:42:13.071Z,0.28
2017-12-17T07:43:12.496Z,0.39
2017-12-17T07:44:12.472Z,0.38
2017-12-17T07:45:12.720Z,0.41
2017-12-17T07:46:12.432Z,0.5
2017-12-17T07:47:12.746Z,0.56
2017-12-17T07:48:12.402Z,0.48
2017-12-17T07:49:12.651Z,0.48
2017-12-17T07:50:12.361Z,0.57
2017-12-17T07:51:12.342Z,0.53
2017-12-17T07:52:12.424Z,0.6
2017-12-17T07:53:12.788Z,0.5
2017-12-17T07:54:12.832Z,0.6
2017-12-17T07:55:12.569Z,0.66
2017-12-17T07:56:12.248Z,0.61
2017-12-17T07:57:12.505Z,0.64
2017-12-17T07:58:12.485Z,0.64
2017-12-17T07:59:12.470Z,0.63
2017-12-17T08:00:12.462Z,0.64
2017-12-17T08:01:12.164Z,0.6
2017-12-17T08:02:12.416Z,0.66
2017-12-17T08:03:12.122Z,0.64
2017-12-17T08:04:12.382Z,0.64
2017-12-17T08:05:12.644Z,0.52
2017-12-17T08:06:12.665Z,0.63
2017-12-17T08:07:12.345Z,0.58
2017-12-17T08:08:12.049Z,0.52
2017-12-17T08:09:12.015Z,0.58
2017-12-17T08:10:12.545Z,0.47
2017-12-17T08:11:12.271Z,0.6
2017-12-17T08:12:12.508Z,0.52
2017-12-17T08:13:12.213Z,0.47
2017-12-17T08:14:12.203Z,0.52
2017-12-17T08:15:12.456Z,0.52
2017-12-17T08:16:11.890Z,0.52
2017-12-17T08:17:12.167Z,0.48
2017-12-17T08:18:12.429Z,0.47
2017-12-17T08:19:11.837Z,0.53
2017-12-17T08:20:12.092Z,0.53
2017-12-17T08:21:12.070Z,0.56
2017-12-17T08:22:12.336Z,0.56
2017-12-17T08:23:11.764Z,0.53
2017-12-17T08:24:12.292Z,0.56
2017-12-17T08:25:12.019Z,0.56
2017-12-17T08:26:11.978Z,0.47
2017-12-17T08:27:11.691Z,0.66
2017-12-17T08:28:11.948Z,0.63
2017-12-17T08:29:12.235Z,0.64
2017-12-17T08:30:11.909Z,0.71
2017-12-17T08:31:12.186Z,0.81
2017-12-17T08:32:11.911Z,0.86
2017-12-17T08:33:11.579Z,0.79
2017-12-17T08:34:11.585Z,0.84
2017-12-17T08:35:11.553Z,0.9
2017-12-17T08:36:11.803Z,0.94
2017-12-17T08:37:11.509Z,0.99
2017-12-17T08:38:11.783Z,0.94
2017-12-17T08:39:11.474Z,1.02
2017-12-17T08:40:11.452Z,1.03
2017-12-17T08:41:11.474Z,0.96
2017-12-17T08:42:11.707Z,1.08
2017-12-17T08:43:11.399Z,1
2017-12-17T08:44:11.385Z,0.94
2017-12-17T08:45:11.639Z,0.94
2017-12-17T08:46:11.620Z,0.94
2017-12-17T08:47:11.349Z,0.89
2017-12-17T08:48:11.581Z,0.94
2017-12-17T08:49:11.566Z,0.92
2017-12-17T08:50:11.277Z,0.84
2017-12-17T08:51:11.278Z,0.76
2017-12-17T08:52:11.241Z,0.82
2017-12-17T08:53:11.221Z,0.79
2017-12-17T08:54:11.478Z,0.84
2017-12-17T08:55:11.462Z,0.86
2017-12-17T08:56:11.443Z,0.79
2017-12-17T08:57:11.153Z,0.84
2017-12-17T08:58:11.133Z,0.96
2017-12-17T08:59:11.390Z,0.89
2017-12-17T09:00:11.100Z,0.97
2017-12-17T09:01:11.356Z,1.03
2017-12-17T09:02:11.070Z,0.99
2017-12-17T09:03:11.044Z,1.08
2017-12-17T09:04:11.041Z,1.15
2017-12-17T09:05:11.010Z,1.14
2017-12-17T09:06:11.536Z,1.17
2017-12-17T09:07:11.262Z,1.17
2017-12-17T09:08:10.958Z,1.29
2017-12-17T09:09:11.215Z,1.22
2017-12-17T09:10:10.942Z,1.2
2017-12-17T09:11:10.904Z,1.24
2017-12-17T09:12:11.645Z,1.2
2017-12-17T09:13:11.139Z,1.29
2017-12-17T09:14:10.857Z,1.32
2017-12-17T09:15:10.845Z,1.3
2017-12-17T09:16:11.425Z,1.3
2017-12-17T09:17:11.070Z,1.33
2017-12-17T09:18:10.785Z,1.33
2017-12-17T09:19:11.036Z,1.3
2017-12-17T09:20:10.742Z,1.3
2017-12-17T09:21:10.733Z,1.21
2017-12-17T09:22:10.981Z,1.29
2017-12-17T09:23:10.689Z,1.29
2017-12-17T09:24:11.224Z,1.28
2017-12-17T09:25:11.197Z,1.18
2017-12-17T09:26:11.199Z,1.18
2017-12-17T09:27:10.894Z,1.15
2017-12-17T09:28:10.601Z,1.17
2017-12-17T09:29:10.862Z,1.17
2017-12-17T09:30:10.839Z,1.14
2017-12-17T09:31:10.826Z,1.17
2017-12-17T09:32:10.537Z,1.17
2017-12-17T09:33:10.802Z,1.18
2017-12-17T09:34:10.800Z,1.18
2017-12-17T09:35:10.483Z,1.2
2017-12-17T09:36:10.731Z,1.22
2017-12-17T09:37:11.006Z,1.21
2017-12-17T09:38:10.970Z,1.17
2017-12-17T09:39:10.409Z,1.21
2017-12-17T09:40:10.393Z,1.18
2017-12-17T09:41:10.375Z,1.2
2017-12-17T09:42:10.624Z,1.14
2017-12-17T09:43:10.877Z,1.15
2017-12-17T09:44:10.320Z,1.15
2017-12-17T09:45:10.580Z,1.11
2017-12-17T09:46:10.556Z,1.17
2017-12-17T09:47:10.542Z,1.1
2017-12-17T09:48:10.803Z,1.07
2017-12-17T09:49:10.506Z,1.12
2017-12-17T09:50:10.212Z,1.1
2017-12-17T09:51:10.470Z,1.12
2017-12-17T09:52:10.184Z,1.11
2017-12-17T09:53:10.432Z,1.11
2017-12-17T09:54:10.698Z,1.14
2017-12-17T09:55:10.129Z,1.15
2017-12-17T09:56:10.128Z,1.15
2017-12-17T09:57:10.090Z,1.22
2017-12-17T09:58:10.623Z,1.28
2017-12-17T09:59:10.056Z,1.29
2017-12-17T10:00:10.320Z,1.26
2017-12-17T10:01:10.070Z,1.32
2017-12-17T10:02:10.004Z,1.32
2017-12-17T10:03:09.986Z,1.32
2017-12-17T10:04:10.240Z,1.32
2017-12-17T10:05:10.217Z,1.4
2017-12-17T10:06:10.223Z,1.39
2017-12-17T10:07:10.184Z,1.33
2017-12-17T10:08:10.169Z,1.42
2017-12-17T10:09:10.433Z,1.53
2017-12-17T10:10:10.136Z,1.58
2017-12-17T10:11:10.393Z,1.47
2017-12-17T10:12:10.103Z,1.64
2017-12-17T10:13:09.827Z,1.72
2017-12-17T10:14:10.063Z,1.86
2017-12-17T10:15:10.044Z,2.01
2017-12-17T10:16:10.026Z,2.04
2017-12-17T10:17:09.736Z,2.13
2017-12-17T10:18:09.996Z,2.15
2017-12-17T10:19:10.250Z,2.27
2017-12-17T10:20:10.235Z,2.4
2017-12-17T10:21:09.671Z,2.45
2017-12-17T10:22:09.924Z,2.49
2017-12-17T10:23:09.635Z,2.52
2017-12-17T10:24:09.905Z,2.66
2017-12-17T10:25:09.872Z,2.59
2017-12-17T10:26:10.136Z,2.65
2017-12-17T10:27:09.849Z,2.59
2017-12-17T10:28:09.834Z,2.58
2017-12-17T10:29:09.805Z,2.45
2017-12-17T10:30:09.797Z,2.36
2017-12-17T10:31:09.775Z,2.31
2017-12-17T10:32:09.484Z,2.34
2017-12-17T10:33:09.472Z,2.31
2017-12-17T10:34:09.723Z,2.34
2017-12-17T10:35:09.711Z,2.33
2017-12-17T10:36:09.970Z,2.29
2017-12-17T10:37:09.683Z,2.33
2017-12-17T10:38:09.665Z,2.33
2017-12-17T10:39:09.910Z,2.31
2017-12-17T10:40:09.912Z,2.33
2017-12-17T10:41:09.334Z,2.27
2017-12-17T10:42:09.593Z,2.29
2017-12-17T10:43:09.299Z,2.2
2017-12-17T10:44:09.564Z,2.16
2017-12-17T10:45:09.823Z,2.13
2017-12-17T10:46:09.522Z,2.11
2017-12-17T10:47:09.508Z,2.04
2017-12-17T10:48:09.489Z,2.05
2017-12-17T10:49:09.494Z,1.94
2017-12-17T10:50:09.186Z,1.87
2017-12-17T10:51:09.712Z,1.82
2017-12-17T10:52:09.153Z,1.71
2017-12-17T10:53:09.409Z,1.72
2017-12-17T10:54:09.398Z,1.64
2017-12-17T10:55:09.383Z,1.54
2017-12-17T10:56:09.370Z,1.5
2017-12-17T10:57:09.344Z,1.48
2017-12-17T10:58:09.047Z,1.46
2017-12-17T10:59:09.301Z,1.48
2017-12-17T11:00:09.292Z,1.51
2017-12-17T11:01:09.547Z,1.53
2017-12-17T11:02:08.979Z,1.5
2017-12-17T11:03:08.964Z,1.58
2017-12-17T11:04:08.947Z,1.57
2017-12-17T11:05:08.929Z,1.6
2017-12-17T11:06:09.309Z,1.65
2017-12-17T11:07:08.917Z,1.68
2017-12-17T11:08:09.150Z,1.66
2017-12-17T11:09:09.132Z,1.72
2017-12-17T11:10:09.116Z,1.6
2017-12-17T11:11:09.126Z,1.6
2017-12-17T11:12:08.806Z,1.74
2017-12-17T11:13:09.061Z,1.71
2017-12-17T11:14:09.048Z,1.72
2017-12-17T11:15:09.031Z,1.75
2017-12-17T11:16:09.013Z,1.83
2017-12-17T11:17:08.721Z,1.83
2017-12-17T11:18:08.977Z,1.84
2017-12-17T11:19:08.961Z,1.82
2017-12-17T11:20:08.944Z,1.82
2017-12-17T11:21:08.661Z,1.72
2017-12-17T11:22:09.182Z,1.69
2017-12-17T11:23:09.164Z,1.76
2017-12-17T11:24:08.882Z,1.72
2017-12-17T11:25:08.890Z,1.83
2017-12-17T11:26:08.850Z,1.89
2017-12-17T11:27:08.552Z,1.84
2017-12-17T11:28:08.840Z,1.97
2017-12-17T11:29:08.571Z,1.97
2017-12-17T11:30:08.502Z,1.89
2017-12-17T11:31:08.478Z,2.01
2017-12-17T11:32:08.734Z,1.82
2017-12-17T11:33:08.722Z,1.87
2017-12-17T11:34:08.434Z,1.97
2017-12-17T11:35:08.437Z,1.9
2017-12-17T11:36:08.668Z,1.86
2017-12-17T11:37:09.009Z,1.75
2017-12-17T11:38:08.633Z,1.69
2017-12-17T11:39:08.355Z,1.69
2017-12-17T11:40:08.344Z,1.74
2017-12-17T11:41:08.597Z,1.72
2017-12-17T11:42:08.889Z,1.75
2017-12-17T11:43:08.286Z,1.84
2017-12-17T11:44:08.538Z,1.83
2017-12-17T11:45:08.531Z,1.84
2017-12-17T11:46:08.233Z,2.01
2017-12-17T11:47:08.494Z,2.06
2017-12-17T11:48:08.193Z,2.2
2017-12-17T11:49:08.448Z,2.11
2017-12-17T11:50:08.451Z,2.15
2017-12-17T11:51:08.160Z,2.13
2017-12-17T11:52:08.679Z,2.18
2017-12-17T11:53:08.395Z,2.04
2017-12-17T11:54:08.389Z,2.06
2017-12-17T11:55:08.085Z,1.94
2017-12-17T11:56:08.334Z,1.98
2017-12-17T11:57:08.321Z,1.93
2017-12-17T11:58:08.323Z,1.93
2017-12-17T11:59:08.012Z,1.89
2017-12-17T12:00:08.269Z,1.89
2017-12-17T12:01:07.981Z,1.92
2017-12-17T12:02:07.971Z,1.84
2017-12-17T12:03:08.480Z,1.75
2017-12-17T12:04:07.930Z,1.68
2017-12-17T12:05:08.171Z,1.61
2017-12-17T12:06:07.885Z,1.71
2017-12-17T12:07:08.163Z,1.58
2017-12-17T12:08:08.130Z,1.47
2017-12-17T12:09:07.857Z,1.5
2017-12-17T12:10:07.817Z,1.48
2017-12-17T12:11:08.346Z,1.44
2017-12-17T12:12:07.791Z,1.48
2017-12-17T12:13:07.777Z,1.36
2017-12-17T12:14:07.747Z,1.48
2017-12-17T12:15:08.012Z,1.4
2017-12-17T12:16:08.285Z,1.36
2017-12-17T12:17:07.977Z,1.32
2017-12-17T12:18:07.715Z,1.4
2017-12-17T12:19:07.670Z,1.29
2017-12-17T12:20:07.926Z,1.42
2017-12-17T12:21:07.649Z,1.33
2017-12-17T12:22:07.913Z,1.32
2017-12-17T12:23:07.605Z,1.3
2017-12-17T12:24:07.632Z,1.24
2017-12-17T12:25:07.859Z,1.28
2017-12-17T12:26:07.844Z,1.21
2017-12-17T12:27:07.807Z,1.21
2017-12-17T12:28:07.796Z,1.15
2017-12-17T12:29:08.102Z,1.12
2017-12-17T12:30:07.764Z,1.04
2017-12-17T12:31:08.034Z,1.08
2017-12-17T12:32:07.972Z,1.08
2017-12-17T12:33:07.423Z,1.15
2017-12-17T12:34:07.948Z,1.08
2017-12-17T12:35:07.680Z,1.1
2017-12-17T12:36:07.405Z,1.07
2017-12-17T12:37:07.675Z,1.03
2017-12-17T12:38:07.627Z,1.12
2017-12-17T12:39:07.596Z,1.12
2017-12-17T12:40:07.301Z,1.17
2017-12-17T12:41:07.319Z,1.15
2017-12-17T12:42:07.560Z,1.14
2017-12-17T12:43:07.272Z,1.14
2017-12-17T12:44:07.494Z,1.02
2017-12-17T12:45:07.224Z,1.2
2017-12-17T12:46:07.747Z,1.11
2017-12-17T12:47:07.180Z,1.12
2017-12-17T12:48:07.160Z,1.14
2017-12-17T12:49:07.457Z,1.12
2017-12-17T12:50:07.401Z,1.15
2017-12-17T12:51:07.381Z,1.17
2017-12-17T12:52:07.378Z,1.12
2017-12-17T12:53:07.361Z,1.1
2017-12-17T12:54:07.323Z,1.2
2017-12-17T12:55:07.054Z,1.17
2017-12-17T12:56:07.026Z,1.1
2017-12-17T12:57:07.071Z,1.12
2017-12-17T12:58:07.260Z,1.14
2017-12-17T12:59:07.269Z,1.03
2017-12-17T13:00:07.204Z,1.11
2017-12-17T13:01:06.941Z,1.08
2017-12-17T13:02:06.912Z,1.1
2017-12-17T13:03:07.190Z,1.1
2017-12-17T13:04:06.878Z,1.11
2017-12-17T13:05:06.877Z,1.14
2017-12-17T13:06:07.393Z,1.15
2017-12-17T13:07:07.083Z,1.15
2017-12-17T13:08:07.100Z,1.12
2017-12-17T13:09:07.045Z,1.15
2017-12-17T13:10:07.065Z,1.22
2017-12-17T13:11:07.039Z,1.2
2017-12-17T13:12:07.010Z,1.21
2017-12-17T13:13:06.718Z,1.29
2017-12-17T13:14:06.977Z,1.24
2017-12-17T13:15:06.975Z,1.32
2017-12-17T13:16:06.945Z,1.26
2017-12-17T13:17:07.184Z,1.29
2017-12-17T13:18:06.884Z,1.26
2017-12-17T13:19:06.623Z,1.17
2017-12-17T13:20:06.846Z,1.1
2017-12-17T13:21:06.854Z,1.07